sensor_id;sensor_type;location;lat;lon;timestamp;P1;durP1;ratioP1;P2;durP2;ratioP2
25721;SDS011;13578;53.450;15.496;2022-10-23T00:00:34;24.02;;;12.68;;
25721;SDS011;13578;53.450;15.496;2022-10-23T00:03:45;27.38;;;12.93;;
25721;SDS011;13578;53.450;15.496;2022-10-23T00:06:55;25.15;;;13.10;;
25721;SDS011;13578;53.450;15.496;2022-10-23T00:10:04;25.67;;;12.20;;
25721;SDS011;13578;53.450;15.496;2022-10-23T00:13:16;33.35;;;13.27;;
25721;SDS011;13578;53.450;15.496;2022-10-23T00:16:29;26.38;;;12.80;;
25721;SDS011;13578;53.450;15.496;2022-10-23T00:19:38;20.75;;;12.27;;
25721;SDS011;13578;53.450;15.496;2022-10-23T00:22:51;22.95;;;13.70;;
25721;SDS011;13578;53.450;15.496;2022-10-23T00:26:05;29.27;;;14.27;;
25721;SDS011;13578;53.450;15.496;2022-10-23T00:29:16;24.65;;;14.05;;
25721;SDS011;13578;53.450;15.496;2022-10-23T00:32:27;25.92;;;14.13;;
25721;SDS011;13578;53.450;15.496;2022-10-23T00:35:41;32.03;;;14.98;;
25721;SDS011;13578;53.450;15.496;2022-10-23T00:38:47;32.20;;;16.05;;
25721;SDS011;13578;53.450;15.496;2022-10-23T00:41:55;25.27;;;14.23;;
25721;SDS011;13578;53.450;15.496;2022-10-23T00:45:20;25.02;;;14.50;;
25721;SDS011;13578;53.450;15.496;2022-10-23T00:51:29;31.55;;;14.23;;
25721;SDS011;13578;53.450;15.496;2022-10-23T00:54:44;22.52;;;12.43;;
25721;SDS011;13578;53.450;15.496;2022-10-23T00:57:56;22.45;;;12.55;;
25721;SDS011;13578;53.450;15.496;2022-10-23T01:01:16;28.40;;;12.85;;
25721;SDS011;13578;53.450;15.496;2022-10-23T01:04:23;28.97;;;13.80;;
25721;SDS011;13578;53.450;15.496;2022-10-23T01:14:00;25.15;;;13.40;;
25721;SDS011;13578;53.450;15.496;2022-10-23T01:17:13;26.33;;;13.82;;
25721;SDS011;13578;53.450;15.496;2022-10-23T01:24:15;28.30;;;14.65;;
25721;SDS011;13578;53.450;15.496;2022-10-23T01:30:15;27.08;;;13.38;;
25721;SDS011;13578;53.450;15.496;2022-10-23T01:33:24;26.08;;;13.68;;
25721;SDS011;13578;53.450;15.496;2022-10-23T01:36:30;27.25;;;12.60;;
25721;SDS011;13578;53.450;15.496;2022-10-23T01:39:35;27.90;;;14.23;;
25721;SDS011;13578;53.450;15.496;2022-10-23T01:42:43;29.00;;;13.93;;
25721;SDS011;13578;53.450;15.496;2022-10-23T01:45:50;23.85;;;13.15;;
25721;SDS011;13578;53.450;15.496;2022-10-23T01:48:58;28.65;;;13.13;;
25721;SDS011;13578;53.450;15.496;2022-10-23T01:52:07;26.20;;;12.27;;
25721;SDS011;13578;53.450;15.496;2022-10-23T01:55:14;28.40;;;12.13;;
25721;SDS011;13578;53.450;15.496;2022-10-23T01:58:18;52.80;;;15.32;;
25721;SDS011;13578;53.450;15.496;2022-10-23T02:01:26;37.10;;;13.13;;
25721;SDS011;13578;53.450;15.496;2022-10-23T02:04:36;39.15;;;14.05;;
25721;SDS011;13578;53.450;15.496;2022-10-23T02:07:40;25.42;;;12.23;;
25721;SDS011;13578;53.450;15.496;2022-10-23T02:10:45;22.00;;;12.40;;
25721;SDS011;13578;53.450;15.496;2022-10-23T02:13:58;25.75;;;12.52;;
25721;SDS011;13578;53.450;15.496;2022-10-23T02:17:14;25.77;;;12.40;;
25721;SDS011;13578;53.450;15.496;2022-10-23T02:20:23;23.65;;;11.45;;
25721;SDS011;13578;53.450;15.496;2022-10-23T02:23:33;27.67;;;11.52;;
25721;SDS011;13578;53.450;15.496;2022-10-23T02:29:41;22.25;;;11.27;;
25721;SDS011;13578;53.450;15.496;2022-10-23T02:32:45;18.15;;;11.23;;
25721;SDS011;13578;53.450;15.496;2022-10-23T02:35:47;21.55;;;10.48;;
25721;SDS011;13578;53.450;15.496;2022-10-23T02:38:49;24.08;;;11.70;;
25721;SDS011;13578;53.450;15.496;2022-10-23T02:45:12;24.10;;;12.13;;
25721;SDS011;13578;53.450;15.496;2022-10-23T02:48:29;21.45;;;11.10;;
25721;SDS011;13578;53.450;15.496;2022-10-23T02:51:38;23.42;;;11.77;;
25721;SDS011;13578;53.450;15.496;2022-10-23T03:01:14;26.08;;;12.50;;
25721;SDS011;13578;53.450;15.496;2022-10-23T03:04:16;26.38;;;12.30;;
25721;SDS011;13578;53.450;15.496;2022-10-23T03:07:21;22.77;;;11.57;;
25721;SDS011;13578;53.450;15.496;2022-10-23T03:10:25;21.75;;;11.52;;
25721;SDS011;13578;53.450;15.496;2022-10-23T03:13:29;19.95;;;11.32;;
25721;SDS011;13578;53.450;15.496;2022-10-23T03:16:31;27.83;;;13.18;;
25721;SDS011;13578;53.450;15.496;2022-10-23T03:19:34;26.00;;;12.13;;
25721;SDS011;13578;53.450;15.496;2022-10-23T03:25:47;22.88;;;11.02;;
25721;SDS011;13578;53.450;15.496;2022-10-23T03:28:56;18.55;;;10.80;;
25721;SDS011;13578;53.450;15.496;2022-10-23T03:31:59;25.15;;;11.45;;
25721;SDS011;13578;53.450;15.496;2022-10-23T03:35:04;18.05;;;11.02;;
25721;SDS011;13578;53.450;15.496;2022-10-23T03:38:09;26.67;;;11.63;;
25721;SDS011;13578;53.450;15.496;2022-10-23T03:41:14;21.05;;;10.43;;
25721;SDS011;13578;53.450;15.496;2022-10-23T03:44:19;24.13;;;11.50;;
25721;SDS011;13578;53.450;15.496;2022-10-23T03:47:23;23.77;;;13.25;;
25721;SDS011;13578;53.450;15.496;2022-10-23T03:50:29;32.67;;;16.15;;
25721;SDS011;13578;53.450;15.496;2022-10-23T03:53:33;30.63;;;15.82;;
25721;SDS011;13578;53.450;15.496;2022-10-23T03:56:38;39.63;;;16.92;;
25721;SDS011;13578;53.450;15.496;2022-10-23T03:59:41;42.80;;;18.75;;
25721;SDS011;13578;53.450;15.496;2022-10-23T04:02:47;40.35;;;19.55;;
25721;SDS011;13578;53.450;15.496;2022-10-23T04:05:53;35.25;;;17.85;;
25721;SDS011;13578;53.450;15.496;2022-10-23T04:08:57;37.35;;;18.73;;
25721;SDS011;13578;53.450;15.496;2022-10-23T04:12:02;34.90;;;18.85;;
25721;SDS011;13578;53.450;15.496;2022-10-23T04:15:09;47.97;;;17.65;;
25721;SDS011;13578;53.450;15.496;2022-10-23T04:18:15;33.03;;;17.48;;
25721;SDS011;13578;53.450;15.496;2022-10-23T04:21:20;30.55;;;17.75;;
25721;SDS011;13578;53.450;15.496;2022-10-23T04:24:26;36.90;;;17.40;;
25721;SDS011;13578;53.450;15.496;2022-10-23T04:27:30;33.80;;;18.23;;
25721;SDS011;13578;53.450;15.496;2022-10-23T04:30:34;37.67;;;17.50;;
25721;SDS011;13578;53.450;15.496;2022-10-23T04:33:39;35.25;;;15.13;;
25721;SDS011;13578;53.450;15.496;2022-10-23T04:36:44;38.13;;;17.52;;
25721;SDS011;13578;53.450;15.496;2022-10-23T04:39:48;30.77;;;16.17;;
25721;SDS011;13578;53.450;15.496;2022-10-23T04:42:53;36.72;;;17.38;;
25721;SDS011;13578;53.450;15.496;2022-10-23T04:45:57;36.30;;;17.05;;
25721;SDS011;13578;53.450;15.496;2022-10-23T04:49:01;30.65;;;15.20;;
25721;SDS011;13578;53.450;15.496;2022-10-23T04:52:06;35.10;;;15.55;;
25721;SDS011;13578;53.450;15.496;2022-10-23T04:55:09;29.63;;;15.85;;
25721;SDS011;13578;53.450;15.496;2022-10-23T05:01:20;32.35;;;15.23;;
25721;SDS011;13578;53.450;15.496;2022-10-23T05:04:23;27.40;;;15.23;;
25721;SDS011;13578;53.450;15.496;2022-10-23T05:07:26;30.30;;;14.95;;
25721;SDS011;13578;53.450;15.496;2022-10-23T05:10:31;30.35;;;14.77;;
25721;SDS011;13578;53.450;15.496;2022-10-23T05:13:34;29.48;;;14.63;;
25721;SDS011;13578;53.450;15.496;2022-10-23T05:19:40;30.15;;;15.35;;
25721;SDS011;13578;53.450;15.496;2022-10-23T05:22:42;35.75;;;14.15;;
25721;SDS011;13578;53.450;15.496;2022-10-23T05:25:43;29.15;;;14.45;;
25721;SDS011;13578;53.450;15.496;2022-10-23T05:28:43;26.63;;;14.23;;
25721;SDS011;13578;53.450;15.496;2022-10-23T05:31:47;35.90;;;14.35;;
25721;SDS011;13578;53.450;15.496;2022-10-23T05:34:51;27.73;;;14.80;;
25721;SDS011;13578;53.450;15.496;2022-10-23T05:38:02;33.05;;;14.98;;
25721;SDS011;13578;53.450;15.496;2022-10-23T05:41:18;36.65;;;15.57;;
25721;SDS011;13578;53.450;15.496;2022-10-23T05:44:37;28.50;;;15.43;;
25721;SDS011;13578;53.450;15.496;2022-10-23T05:47:59;30.30;;;14.73;;
25721;SDS011;13578;53.450;15.496;2022-10-23T05:51:20;35.10;;;14.38;;
25721;SDS011;13578;53.450;15.496;2022-10-23T05:54:34;29.80;;;16.13;;
25721;SDS011;13578;53.450;15.496;2022-10-23T05:58:00;41.75;;;15.40;;
25721;SDS011;13578;53.450;15.496;2022-10-23T06:01:22;54.85;;;16.08;;
25721;SDS011;13578;53.450;15.496;2022-10-23T06:04:39;45.03;;;15.90;;
25721;SDS011;13578;53.450;15.496;2022-10-23T06:07:51;35.15;;;13.95;;
25721;SDS011;13578;53.450;15.496;2022-10-23T06:11:09;33.50;;;15.10;;
25721;SDS011;13578;53.450;15.496;2022-10-23T06:14:32;47.92;;;16.20;;
25721;SDS011;13578;53.450;15.496;2022-10-23T06:17:46;38.35;;;13.43;;
25721;SDS011;13578;53.450;15.496;2022-10-23T06:21:03;36.75;;;15.00;;
25721;SDS011;13578;53.450;15.496;2022-10-23T06:24:23;41.85;;;14.95;;
25721;SDS011;13578;53.450;15.496;2022-10-23T06:27:36;59.58;;;16.25;;
25721;SDS011;13578;53.450;15.496;2022-10-23T06:31:02;34.65;;;15.38;;
25721;SDS011;13578;53.450;15.496;2022-10-23T06:34:26;33.13;;;14.80;;
25721;SDS011;13578;53.450;15.496;2022-10-23T06:37:49;27.73;;;16.23;;
25721;SDS011;13578;53.450;15.496;2022-10-23T06:41:16;30.90;;;14.98;;
25721;SDS011;13578;53.450;15.496;2022-10-23T06:44:43;28.25;;;15.15;;
25721;SDS011;13578;53.450;15.496;2022-10-23T06:48:09;33.03;;;16.02;;
25721;SDS011;13578;53.450;15.496;2022-10-23T06:51:26;27.73;;;14.68;;
25721;SDS011;13578;53.450;15.496;2022-10-23T06:54:51;32.63;;;14.70;;
25721;SDS011;13578;53.450;15.496;2022-10-23T06:58:15;26.77;;;14.85;;
25721;SDS011;13578;53.450;15.496;2022-10-23T07:01:41;25.33;;;15.50;;
25721;SDS011;13578;53.450;15.496;2022-10-23T07:05:04;27.45;;;14.38;;
25721;SDS011;13578;53.450;15.496;2022-10-23T07:08:30;29.85;;;14.43;;
25721;SDS011;13578;53.450;15.496;2022-10-23T07:11:49;34.42;;;15.95;;
25721;SDS011;13578;53.450;15.496;2022-10-23T07:15:01;25.05;;;13.70;;
25721;SDS011;13578;53.450;15.496;2022-10-23T07:18:17;26.92;;;14.00;;
25721;SDS011;13578;53.450;15.496;2022-10-23T07:21:37;26.63;;;13.85;;
25721;SDS011;13578;53.450;15.496;2022-10-23T07:24:47;30.67;;;13.52;;
25721;SDS011;13578;53.450;15.496;2022-10-23T07:27:53;31.00;;;14.07;;
25721;SDS011;13578;53.450;15.496;2022-10-23T07:30:59;28.58;;;13.93;;
25721;SDS011;13578;53.450;15.496;2022-10-23T07:34:05;26.20;;;13.80;;
25721;SDS011;13578;53.450;15.496;2022-10-23T07:37:10;28.35;;;14.20;;
25721;SDS011;13578;53.450;15.496;2022-10-23T07:40:15;30.27;;;12.98;;
25721;SDS011;13578;53.450;15.496;2022-10-23T07:43:19;21.92;;;12.32;;
25721;SDS011;13578;53.450;15.496;2022-10-23T07:46:20;20.80;;;11.95;;
25721;SDS011;13578;53.450;15.496;2022-10-23T07:49:27;28.48;;;14.18;;
25721;SDS011;13578;53.450;15.496;2022-10-23T07:52:34;28.80;;;12.93;;
25721;SDS011;13578;53.450;15.496;2022-10-23T07:55:41;31.92;;;12.98;;
25721;SDS011;13578;53.450;15.496;2022-10-23T07:58:56;29.67;;;13.10;;
25721;SDS011;13578;53.450;15.496;2022-10-23T08:02:07;23.15;;;12.27;;
25721;SDS011;13578;53.450;15.496;2022-10-23T08:05:21;28.02;;;12.25;;
25721;SDS011;13578;53.450;15.496;2022-10-23T08:08:29;23.90;;;12.43;;
25721;SDS011;13578;53.450;15.496;2022-10-23T08:11:46;28.95;;;13.10;;
25721;SDS011;13578;53.450;15.496;2022-10-23T08:14:49;23.77;;;13.50;;
25721;SDS011;13578;53.450;15.496;2022-10-23T08:17:50;21.77;;;13.07;;
25721;SDS011;13578;53.450;15.496;2022-10-23T08:20:52;24.45;;;13.95;;
25721;SDS011;13578;53.450;15.496;2022-10-23T08:23:55;28.55;;;14.43;;
25721;SDS011;13578;53.450;15.496;2022-10-23T08:26:56;29.27;;;14.38;;
25721;SDS011;13578;53.450;15.496;2022-10-23T08:29:57;28.17;;;13.65;;
25721;SDS011;13578;53.450;15.496;2022-10-23T08:32:58;30.98;;;15.00;;
25721;SDS011;13578;53.450;15.496;2022-10-23T08:35:58;27.30;;;13.55;;
25721;SDS011;13578;53.450;15.496;2022-10-23T08:38:59;26.70;;;13.43;;
25721;SDS011;13578;53.450;15.496;2022-10-23T08:42:00;32.85;;;14.05;;
25721;SDS011;13578;53.450;15.496;2022-10-23T08:45:02;35.28;;;14.35;;
25721;SDS011;13578;53.450;15.496;2022-10-23T08:51:47;25.48;;;13.32;;
25721;SDS011;13578;53.450;15.496;2022-10-23T08:54:55;43.33;;;14.17;;
25721;SDS011;13578;53.450;15.496;2022-10-23T08:58:36;35.10;;;14.80;;
25721;SDS011;13578;53.450;15.496;2022-10-23T09:01:45;27.50;;;13.45;;
25721;SDS011;13578;53.450;15.496;2022-10-23T09:04:50;35.78;;;12.10;;
25721;SDS011;13578;53.450;15.496;2022-10-23T09:18:24;23.17;;;12.37;;
25721;SDS011;13578;53.450;15.496;2022-10-23T09:21:28;25.48;;;11.82;;
25721;SDS011;13578;53.450;15.496;2022-10-23T09:24:29;23.10;;;11.63;;
25721;SDS011;13578;53.450;15.496;2022-10-23T09:27:31;24.08;;;9.98;;
25721;SDS011;13578;53.450;15.496;2022-10-23T09:30:36;24.00;;;10.80;;
25721;SDS011;13578;53.450;15.496;2022-10-23T09:33:41;16.50;;;8.88;;
25721;SDS011;13578;53.450;15.496;2022-10-23T09:36:53;18.40;;;9.68;;
25721;SDS011;13578;53.450;15.496;2022-10-23T09:43:28;29.48;;;10.95;;
25721;SDS011;13578;53.450;15.496;2022-10-23T09:50:19;28.25;;;10.35;;
25721;SDS011;13578;53.450;15.496;2022-10-23T09:53:31;23.27;;;9.70;;
25721;SDS011;13578;53.450;15.496;2022-10-23T09:57:14;19.20;;;9.52;;
25721;SDS011;13578;53.450;15.496;2022-10-23T10:00:23;26.85;;;10.00;;
25721;SDS011;13578;53.450;15.496;2022-10-23T10:03:26;23.60;;;9.35;;
25721;SDS011;13578;53.450;15.496;2022-10-23T10:06:28;18.35;;;8.38;;
25721;SDS011;13578;53.450;15.496;2022-10-23T10:09:31;16.95;;;8.07;;
25721;SDS011;13578;53.450;15.496;2022-10-23T10:16:11;20.63;;;8.88;;
25721;SDS011;13578;53.450;15.496;2022-10-23T10:22:49;27.50;;;9.85;;
25721;SDS011;13578;53.450;15.496;2022-10-23T10:32:56;20.77;;;9.00;;
25721;SDS011;13578;53.450;15.496;2022-10-23T10:36:16;22.85;;;8.90;;
25721;SDS011;13578;53.450;15.496;2022-10-23T10:42:47;21.00;;;9.25;;
25721;SDS011;13578;53.450;15.496;2022-10-23T10:46:13;17.75;;;7.22;;
25721;SDS011;13578;53.450;15.496;2022-10-23T10:49:34;18.55;;;7.78;;
25721;SDS011;13578;53.450;15.496;2022-10-23T10:55:57;16.50;;;7.47;;
25721;SDS011;13578;53.450;15.496;2022-10-23T10:59:09;14.95;;;6.40;;
25721;SDS011;13578;53.450;15.496;2022-10-23T11:02:22;17.10;;;7.07;;
25721;SDS011;13578;53.450;15.496;2022-10-23T11:05:32;23.27;;;6.72;;
25721;SDS011;13578;53.450;15.496;2022-10-23T11:08:43;16.70;;;6.35;;
25721;SDS011;13578;53.450;15.496;2022-10-23T11:11:44;16.45;;;6.53;;
25721;SDS011;13578;53.450;15.496;2022-10-23T11:14:44;11.95;;;5.72;;
25721;SDS011;13578;53.450;15.496;2022-10-23T11:17:56;13.27;;;5.88;;
25721;SDS011;13578;53.450;15.496;2022-10-23T11:22:02;21.50;;;7.10;;
25721;SDS011;13578;53.450;15.496;2022-10-23T11:38:16;14.25;;;6.05;;
25721;SDS011;13578;53.450;15.496;2022-10-23T11:41:20;13.15;;;5.35;;
25721;SDS011;13578;53.450;15.496;2022-10-23T11:44:42;15.15;;;6.07;;
25721;SDS011;13578;53.450;15.496;2022-10-23T11:47:44;10.63;;;4.97;;
25721;SDS011;13578;53.450;15.496;2022-10-23T11:50:59;21.27;;;5.83;;
25721;SDS011;13578;53.450;15.496;2022-10-23T11:54:06;19.75;;;5.55;;
25721;SDS011;13578;53.450;15.496;2022-10-23T11:57:23;21.15;;;5.70;;
25721;SDS011;13578;53.450;15.496;2022-10-23T12:00:23;16.45;;;5.80;;
25721;SDS011;13578;53.450;15.496;2022-10-23T12:03:46;15.73;;;6.05;;
25721;SDS011;13578;53.450;15.496;2022-10-23T12:06:51;14.80;;;5.10;;
25721;SDS011;13578;53.450;15.496;2022-10-23T12:09:56;10.38;;;5.13;;
25721;SDS011;13578;53.450;15.496;2022-10-23T12:13:03;9.38;;;4.63;;
25721;SDS011;13578;53.450;15.496;2022-10-23T12:16:05;12.70;;;3.80;;
25721;SDS011;13578;53.450;15.496;2022-10-23T12:19:26;14.93;;;4.85;;
25721;SDS011;13578;53.450;15.496;2022-10-23T12:22:49;8.40;;;4.65;;
25721;SDS011;13578;53.450;15.496;2022-10-23T12:39:24;9.23;;;3.95;;
25721;SDS011;13578;53.450;15.496;2022-10-23T12:42:29;10.48;;;4.30;;
25721;SDS011;13578;53.450;15.496;2022-10-23T12:45:31;17.52;;;5.22;;
25721;SDS011;13578;53.450;15.496;2022-10-23T12:48:46;9.43;;;3.40;;
25721;SDS011;13578;53.450;15.496;2022-10-23T12:51:55;7.15;;;4.32;;
25721;SDS011;13578;53.450;15.496;2022-10-23T12:54:57;18.42;;;4.55;;
25721;SDS011;13578;53.450;15.496;2022-10-23T12:57:58;10.82;;;4.47;;
25721;SDS011;13578;53.450;15.496;2022-10-23T13:01:00;12.93;;;4.22;;
25721;SDS011;13578;53.450;15.496;2022-10-23T13:07:09;14.48;;;3.72;;
25721;SDS011;13578;53.450;15.496;2022-10-23T13:10:18;11.00;;;4.28;;
25721;SDS011;13578;53.450;15.496;2022-10-23T13:13:21;13.02;;;3.95;;
25721;SDS011;13578;53.450;15.496;2022-10-23T13:16:24;10.45;;;3.67;;
25721;SDS011;13578;53.450;15.496;2022-10-23T13:19:25;10.88;;;4.03;;
25721;SDS011;13578;53.450;15.496;2022-10-23T13:22:26;10.45;;;4.45;;
25721;SDS011;13578;53.450;15.496;2022-10-23T13:25:28;8.43;;;3.58;;
25721;SDS011;13578;53.450;15.496;2022-10-23T13:28:45;11.57;;;4.90;;
25721;SDS011;13578;53.450;15.496;2022-10-23T13:31:46;7.23;;;3.47;;
25721;SDS011;13578;53.450;15.496;2022-10-23T13:34:53;10.13;;;4.13;;
25721;SDS011;13578;53.450;15.496;2022-10-23T13:38:05;12.60;;;3.95;;
25721;SDS011;13578;53.450;15.496;2022-10-23T13:41:11;8.10;;;4.25;;
25721;SDS011;13578;53.450;15.496;2022-10-23T13:44:15;11.93;;;3.97;;
25721;SDS011;13578;53.450;15.496;2022-10-23T13:47:17;16.13;;;4.82;;
25721;SDS011;13578;53.450;15.496;2022-10-23T13:50:18;8.88;;;4.40;;
25721;SDS011;13578;53.450;15.496;2022-10-23T13:53:19;12.90;;;4.28;;
25721;SDS011;13578;53.450;15.496;2022-10-23T13:56:20;15.80;;;5.18;;
25721;SDS011;13578;53.450;15.496;2022-10-23T13:59:22;15.15;;;5.25;;
25721;SDS011;13578;53.450;15.496;2022-10-23T14:02:23;12.57;;;3.47;;
25721;SDS011;13578;53.450;15.496;2022-10-23T14:05:24;9.65;;;4.18;;
25721;SDS011;13578;53.450;15.496;2022-10-23T14:08:24;13.45;;;4.43;;
25721;SDS011;13578;53.450;15.496;2022-10-23T14:11:25;10.63;;;3.95;;
25721;SDS011;13578;53.450;15.496;2022-10-23T14:14:25;15.40;;;4.78;;
25721;SDS011;13578;53.450;15.496;2022-10-23T14:17:26;11.25;;;4.60;;
25721;SDS011;13578;53.450;15.496;2022-10-23T14:20:27;17.92;;;5.40;;
25721;SDS011;13578;53.450;15.496;2022-10-23T14:23:28;11.45;;;4.65;;
25721;SDS011;13578;53.450;15.496;2022-10-23T14:26:29;9.80;;;4.60;;
25721;SDS011;13578;53.450;15.496;2022-10-23T14:29:31;17.70;;;5.30;;
25721;SDS011;13578;53.450;15.496;2022-10-23T14:32:32;8.02;;;4.55;;
25721;SDS011;13578;53.450;15.496;2022-10-23T14:35:33;15.25;;;5.63;;
25721;SDS011;13578;53.450;15.496;2022-10-23T14:38:33;10.50;;;4.90;;
25721;SDS011;13578;53.450;15.496;2022-10-23T14:41:34;11.07;;;4.32;;
25721;SDS011;13578;53.450;15.496;2022-10-23T14:44:35;11.23;;;4.03;;
25721;SDS011;13578;53.450;15.496;2022-10-23T14:47:35;13.85;;;5.13;;
25721;SDS011;13578;53.450;15.496;2022-10-23T14:50:37;13.88;;;4.57;;
25721;SDS011;13578;53.450;15.496;2022-10-23T14:53:43;9.68;;;5.10;;
25721;SDS011;13578;53.450;15.496;2022-10-23T14:56:44;8.45;;;3.78;;
25721;SDS011;13578;53.450;15.496;2022-10-23T14:59:44;9.95;;;4.47;;
25721;SDS011;13578;53.450;15.496;2022-10-23T15:02:45;12.52;;;5.05;;
25721;SDS011;13578;53.450;15.496;2022-10-23T15:05:45;9.90;;;4.60;;
25721;SDS011;13578;53.450;15.496;2022-10-23T15:08:48;13.02;;;4.55;;
25721;SDS011;13578;53.450;15.496;2022-10-23T15:11:54;14.52;;;4.93;;
25721;SDS011;13578;53.450;15.496;2022-10-23T15:14:54;9.55;;;3.95;;
25721;SDS011;13578;53.450;15.496;2022-10-23T15:17:55;9.63;;;4.25;;
25721;SDS011;13578;53.450;15.496;2022-10-23T15:20:56;10.02;;;4.93;;
25721;SDS011;13578;53.450;15.496;2022-10-23T15:23:57;7.05;;;4.25;;
25721;SDS011;13578;53.450;15.496;2022-10-23T15:27:00;10.35;;;5.03;;
25721;SDS011;13578;53.450;15.496;2022-10-23T15:30:01;8.63;;;4.63;;
25721;SDS011;13578;53.450;15.496;2022-10-23T15:33:01;11.02;;;4.80;;
25721;SDS011;13578;53.450;15.496;2022-10-23T15:36:02;11.48;;;5.80;;
25721;SDS011;13578;53.450;15.496;2022-10-23T15:39:06;12.63;;;5.40;;
25721;SDS011;13578;53.450;15.496;2022-10-23T15:42:08;11.30;;;4.63;;
25721;SDS011;13578;53.450;15.496;2022-10-23T15:45:09;9.45;;;4.45;;
25721;SDS011;13578;53.450;15.496;2022-10-23T15:48:12;9.07;;;4.80;;
25721;SDS011;13578;53.450;15.496;2022-10-23T15:51:13;13.57;;;4.80;;
25721;SDS011;13578;53.450;15.496;2022-10-23T15:54:14;15.13;;;4.97;;
25721;SDS011;13578;53.450;15.496;2022-10-23T15:57:18;11.88;;;6.40;;
25721;SDS011;13578;53.450;15.496;2022-10-23T16:00:18;11.65;;;5.53;;
25721;SDS011;13578;53.450;15.496;2022-10-23T16:03:19;13.48;;;6.50;;
25721;SDS011;13578;53.450;15.496;2022-10-23T16:06:20;15.98;;;6.80;;
25721;SDS011;13578;53.450;15.496;2022-10-23T16:09:21;15.55;;;6.97;;
25721;SDS011;13578;53.450;15.496;2022-10-23T16:12:21;16.98;;;6.82;;
25721;SDS011;13578;53.450;15.496;2022-10-23T16:15:22;13.95;;;7.25;;
25721;SDS011;13578;53.450;15.496;2022-10-23T16:18:23;13.80;;;6.78;;
25721;SDS011;13578;53.450;15.496;2022-10-23T16:21:25;23.75;;;7.80;;
25721;SDS011;13578;53.450;15.496;2022-10-23T16:24:28;22.13;;;6.95;;
25721;SDS011;13578;53.450;15.496;2022-10-23T16:27:29;10.82;;;6.18;;
25721;SDS011;13578;53.450;15.496;2022-10-23T16:30:29;12.95;;;6.15;;
25721;SDS011;13578;53.450;15.496;2022-10-23T16:33:30;11.07;;;5.47;;
25721;SDS011;13578;53.450;15.496;2022-10-23T16:36:31;13.75;;;6.15;;
25721;SDS011;13578;53.450;15.496;2022-10-23T16:39:33;9.13;;;5.65;;
25721;SDS011;13578;53.450;15.496;2022-10-23T16:42:35;16.48;;;6.85;;
25721;SDS011;13578;53.450;15.496;2022-10-23T16:45:35;17.23;;;6.70;;
25721;SDS011;13578;53.450;15.496;2022-10-23T16:48:36;21.70;;;7.70;;
25721;SDS011;13578;53.450;15.496;2022-10-23T16:51:37;16.38;;;7.20;;
25721;SDS011;13578;53.450;15.496;2022-10-23T16:54:38;11.40;;;6.10;;
25721;SDS011;13578;53.450;15.496;2022-10-23T16:57:41;11.75;;;5.97;;
25721;SDS011;13578;53.450;15.496;2022-10-23T17:00:42;13.27;;;6.32;;
25721;SDS011;13578;53.450;15.496;2022-10-23T17:03:43;15.48;;;6.60;;
25721;SDS011;13578;53.450;15.496;2022-10-23T17:06:48;11.63;;;6.32;;
25721;SDS011;13578;53.450;15.496;2022-10-23T17:09:49;9.98;;;6.50;;
25721;SDS011;13578;53.450;15.496;2022-10-23T17:12:50;12.57;;;6.97;;
25721;SDS011;13578;53.450;15.496;2022-10-23T17:15:50;13.40;;;6.65;;
25721;SDS011;13578;53.450;15.496;2022-10-23T17:18:51;15.20;;;7.45;;
25721;SDS011;13578;53.450;15.496;2022-10-23T17:21:52;18.00;;;7.15;;
25721;SDS011;13578;53.450;15.496;2022-10-23T17:24:55;16.67;;;7.00;;
25721;SDS011;13578;53.450;15.496;2022-10-23T17:27:56;21.23;;;7.95;;
25721;SDS011;13578;53.450;15.496;2022-10-23T17:30:57;13.73;;;7.70;;
25721;SDS011;13578;53.450;15.496;2022-10-23T17:33:58;15.65;;;7.20;;
25721;SDS011;13578;53.450;15.496;2022-10-23T17:37:05;25.65;;;8.32;;
25721;SDS011;13578;53.450;15.496;2022-10-23T17:40:07;16.33;;;8.15;;
25721;SDS011;13578;53.450;15.496;2022-10-23T17:43:08;17.17;;;8.75;;
25721;SDS011;13578;53.450;15.496;2022-10-23T17:46:09;15.95;;;9.15;;
25721;SDS011;13578;53.450;15.496;2022-10-23T17:49:11;19.67;;;8.35;;
25721;SDS011;13578;53.450;15.496;2022-10-23T17:52:11;19.52;;;7.88;;
25721;SDS011;13578;53.450;15.496;2022-10-23T17:55:14;18.55;;;9.52;;
25721;SDS011;13578;53.450;15.496;2022-10-23T17:58:14;15.70;;;8.25;;
25721;SDS011;13578;53.450;15.496;2022-10-23T18:01:16;21.50;;;9.82;;
25721;SDS011;13578;53.450;15.496;2022-10-23T18:04:19;17.50;;;8.43;;
25721;SDS011;13578;53.450;15.496;2022-10-23T18:07:20;16.30;;;8.45;;
25721;SDS011;13578;53.450;15.496;2022-10-23T18:10:23;19.45;;;9.18;;
25721;SDS011;13578;53.450;15.496;2022-10-23T18:13:23;14.15;;;7.82;;
25721;SDS011;13578;53.450;15.496;2022-10-23T18:16:24;16.33;;;9.10;;
25721;SDS011;13578;53.450;15.496;2022-10-23T18:19:25;22.92;;;10.23;;
25721;SDS011;13578;53.450;15.496;2022-10-23T18:22:27;21.15;;;8.45;;
25721;SDS011;13578;53.450;15.496;2022-10-23T18:25:29;16.95;;;9.18;;
25721;SDS011;13578;53.450;15.496;2022-10-23T18:28:30;14.68;;;8.77;;
25721;SDS011;13578;53.450;15.496;2022-10-23T18:31:31;28.48;;;10.50;;
25721;SDS011;13578;53.450;15.496;2022-10-23T18:34:32;16.75;;;8.73;;
25721;SDS011;13578;53.450;15.496;2022-10-23T18:37:33;18.20;;;8.60;;
25721;SDS011;13578;53.450;15.496;2022-10-23T18:40:34;15.55;;;9.00;;
25721;SDS011;13578;53.450;15.496;2022-10-23T18:43:35;22.30;;;9.43;;
25721;SDS011;13578;53.450;15.496;2022-10-23T18:46:37;16.77;;;9.57;;
25721;SDS011;13578;53.450;15.496;2022-10-23T18:49:37;16.52;;;9.27;;
25721;SDS011;13578;53.450;15.496;2022-10-23T18:52:38;20.25;;;9.82;;
25721;SDS011;13578;53.450;15.496;2022-10-23T18:55:45;18.15;;;9.70;;
25721;SDS011;13578;53.450;15.496;2022-10-23T18:58:51;17.40;;;9.10;;
25721;SDS011;13578;53.450;15.496;2022-10-23T19:01:53;22.23;;;10.25;;
25721;SDS011;13578;53.450;15.496;2022-10-23T19:04:54;25.60;;;10.55;;
25721;SDS011;13578;53.450;15.496;2022-10-23T19:07:54;21.15;;;10.70;;
25721;SDS011;13578;53.450;15.496;2022-10-23T19:10:55;19.35;;;11.15;;
25721;SDS011;13578;53.450;15.496;2022-10-23T19:13:59;20.58;;;10.65;;
25721;SDS011;13578;53.450;15.496;2022-10-23T19:17:19;19.10;;;11.02;;
25721;SDS011;13578;53.450;15.496;2022-10-23T19:20:23;17.00;;;10.35;;
25721;SDS011;13578;53.450;15.496;2022-10-23T19:23:24;21.85;;;9.88;;
25721;SDS011;13578;53.450;15.496;2022-10-23T19:26:28;25.15;;;11.57;;
25721;SDS011;13578;53.450;15.496;2022-10-23T19:29:31;21.60;;;11.02;;
25721;SDS011;13578;53.450;15.496;2022-10-23T19:32:32;16.98;;;9.95;;
25721;SDS011;13578;53.450;15.496;2022-10-23T19:35:32;20.35;;;10.10;;
25721;SDS011;13578;53.450;15.496;2022-10-23T19:38:33;25.08;;;10.90;;
25721;SDS011;13578;53.450;15.496;2022-10-23T19:41:34;21.52;;;10.65;;
25721;SDS011;13578;53.450;15.496;2022-10-23T19:44:34;17.75;;;10.13;;
25721;SDS011;13578;53.450;15.496;2022-10-23T19:47:35;22.73;;;11.57;;
25721;SDS011;13578;53.450;15.496;2022-10-23T19:50:36;26.42;;;11.55;;
25721;SDS011;13578;53.450;15.496;2022-10-23T19:53:36;22.45;;;12.70;;